Accueil
METAR-TAF:

METAR-TAF

Aéroports :

Saint-Sébastien, Espagne

Aéroport de Saint-Sébastien

latitude: 43-21N, longitude: 001-48W, altitude: 5 m

Observation

Le bulletin a été fait il y a 36 minutes, à 03:00 UTC
Vent 5 kt de ouest/sud-ouest
Température 15°C
Humidité 94%
Pression 1010 hPa
Visibilité 10 km ou plus

METAR: LESO 190300Z AUTO 24005KT 9999 FEW034/// BKN045/// 15/14 Q1010

Heure: 05:36 (03:36 UTC)

Prévision

Le bulletin a été fait il y a 4 heures et 36 minutes, à 23:00 UTC
Prévision valable du 19 à 00 UTC au 19 à 24 UTC
Vent 8 kt de sud-ouest
Visibilité 10 km ou plus
Quelques nuages à une hauteur de 1500 ft
Nuages fragmentés à une hauteur de 4000 ft
Temporairement
du 19 à 00 UTC au 19 à 06 UTC
pluie
Probabilité 40% :
Temporairement
du 19 à 12 UTC au 19 à 17 UTC
Vent 10 kt de nord/nord-est

TAF: LESO 182300Z 1900/1924 23008KT 9999 FEW015 BKN040 TX21/1914Z TN14/1906Z TEMPO 1900/1906 RA PROB40 TEMPO 1912/1917 02010KT

Observations et prévisions météorologiques de plus de 4000 aéroports (messages METAR et TAF).

Les stations disponibles sont représentées par des disques jaunes et rouges sur la carte.

Passer la souris dessus pour voir le nom de la station.

Cliquer dessus pour voir les observations et prévisions météorologiques.

Pour changer de carte: cliquez sur les boutons verts avec une croix noire pour zoomer, sur le bouton vert avec un tiret pour effectuer un zoom arrière, ou sur les flèches vertes pour les cartes adjacentes.


METAR-TAF: